GCC Virtual Airport Information Service

John Paul II International Airport Kraków-Balice Airport

ICAO: EPKK Country: PL
Latitude: 50.0777 Longitude: 19.7848
Latest Arrival : FDB1787 (OMDB-EPKK) Latest Departure : FDB1788 (EPKK-OMDB)


WX CaptureLIVE
Data provided by noaa.gov | Fetched at 06:06:53

METAR : EPKK 270530Z 23009KT 3500 SHSN SCT008 BKN012CB M02/M03 Q1011 R25/42//95

TAF : EPKK 270530Z 2706/2806 23010KT 9999 BKN016 TEMPO 2706/2709 2000 SN BKN008 BKN012 PROB40 TEMPO 2706/2709 0900 +SHSN BKN005 BKN010CB TEMPO 2709/2724 4000 -SN BR BKN012 BECMG 2801/2804 VRB02KT 0900 FZFG


Runway Data for EPKK
Data provided by openaviationdata.com

Runway ID Mag Var Hdg Length Elevation Surface ILS Freq ILS Id ILS Slope
7 4 73° 8353 ft 791 ft Concrete -- -- --
25 4 253° 8353 ft 791 ft Concrete 110.3 KRW 3

John Paul II International Airport Kraków-Balice Airport, PL
Use only for reference purposes



Not for navigational purposes.